sensor_id;sensor_type;location;lat;lon;timestamp;temperature;humidity
7666;DHT22;3875;46.562;4.898;2023-04-06T00:00:57;4.60;73.00
7666;DHT22;3875;46.562;4.898;2023-04-06T00:03:23;4.50;73.20
7666;DHT22;3875;46.562;4.898;2023-04-06T00:05:49;4.50;73.20
7666;DHT22;3875;46.562;4.898;2023-04-06T00:08:15;4.50;73.20
7666;DHT22;3875;46.562;4.898;2023-04-06T00:10:41;4.50;73.30
7666;DHT22;3875;46.562;4.898;2023-04-06T00:13:07;4.50;73.20
7666;DHT22;3875;46.562;4.898;2023-04-06T00:15:33;4.50;73.40
7666;DHT22;3875;46.562;4.898;2023-04-06T00:17:59;4.60;73.20
7666;DHT22;3875;46.562;4.898;2023-04-06T00:20:25;4.70;73.10
7666;DHT22;3875;46.562;4.898;2023-04-06T00:22:51;4.60;73.00
7666;DHT22;3875;46.562;4.898;2023-04-06T00:25:16;4.40;73.10
7666;DHT22;3875;46.562;4.898;2023-04-06T00:27:42;4.40;73.40
7666;DHT22;3875;46.562;4.898;2023-04-06T00:30:08;4.30;73.70
7666;DHT22;3875;46.562;4.898;2023-04-06T00:32:35;4.10;74.60
7666;DHT22;3875;46.562;4.898;2023-04-06T00:35:05;4.00;74.90
7666;DHT22;3875;46.562;4.898;2023-04-06T00:37:31;4.00;74.70
7666;DHT22;3875;46.562;4.898;2023-04-06T00:39:57;4.10;74.60
7666;DHT22;3875;46.562;4.898;2023-04-06T00:42:23;4.20;74.20
7666;DHT22;3875;46.562;4.898;2023-04-06T00:44:57;4.30;73.80
7666;DHT22;3875;46.562;4.898;2023-04-06T00:47:23;4.40;73.60
7666;DHT22;3875;46.562;4.898;2023-04-06T00:49:51;4.40;73.40
7666;DHT22;3875;46.562;4.898;2023-04-06T00:52:17;4.40;73.30
7666;DHT22;3875;46.562;4.898;2023-04-06T00:54:43;4.50;73.10
7666;DHT22;3875;46.562;4.898;2023-04-06T00:57:10;4.50;73.00
7666;DHT22;3875;46.562;4.898;2023-04-06T00:59:36;4.40;73.00
7666;DHT22;3875;46.562;4.898;2023-04-06T01:02:02;4.40;73.10
7666;DHT22;3875;46.562;4.898;2023-04-06T01:04:28;4.40;73.00
7666;DHT22;3875;46.562;4.898;2023-04-06T01:06:53;4.30;73.40
7666;DHT22;3875;46.562;4.898;2023-04-06T01:09:19;4.40;73.30
7666;DHT22;3875;46.562;4.898;2023-04-06T01:11:45;4.40;73.30
7666;DHT22;3875;46.562;4.898;2023-04-06T01:14:11;4.40;73.10
7666;DHT22;3875;46.562;4.898;2023-04-06T01:16:37;4.40;73.30
7666;DHT22;3875;46.562;4.898;2023-04-06T01:19:12;4.30;73.60
7666;DHT22;3875;46.562;4.898;2023-04-06T01:21:39;4.30;73.60
7666;DHT22;3875;46.562;4.898;2023-04-06T01:24:06;4.30;73.80
7666;DHT22;3875;46.562;4.898;2023-04-06T01:26:32;4.30;73.80
7666;DHT22;3875;46.562;4.898;2023-04-06T01:28:58;4.30;73.70
7666;DHT22;3875;46.562;4.898;2023-04-06T01:31:24;4.30;73.80
7666;DHT22;3875;46.562;4.898;2023-04-06T01:33:50;4.20;73.90
7666;DHT22;3875;46.562;4.898;2023-04-06T01:36:16;4.20;73.90
7666;DHT22;3875;46.562;4.898;2023-04-06T01:38:42;4.20;74.30
7666;DHT22;3875;46.562;4.898;2023-04-06T01:41:08;4.20;74.10
7666;DHT22;3875;46.562;4.898;2023-04-06T01:43:34;4.10;73.90
7666;DHT22;3875;46.562;4.898;2023-04-06T01:46:01;4.10;74.00
7666;DHT22;3875;46.562;4.898;2023-04-06T01:48:27;4.10;74.20
7666;DHT22;3875;46.562;4.898;2023-04-06T01:50:53;4.00;74.20
7666;DHT22;3875;46.562;4.898;2023-04-06T01:53:19;4.00;74.20
7666;DHT22;3875;46.562;4.898;2023-04-06T01:55:45;3.90;74.00
7666;DHT22;3875;46.562;4.898;2023-04-06T01:58:11;3.90;74.40
7666;DHT22;3875;46.562;4.898;2023-04-06T02:00:37;3.80;74.60
7666;DHT22;3875;46.562;4.898;2023-04-06T02:03:02;3.80;74.70
7666;DHT22;3875;46.562;4.898;2023-04-06T02:05:30;3.70;74.80
7666;DHT22;3875;46.562;4.898;2023-04-06T02:07:56;3.70;75.00
7666;DHT22;3875;46.562;4.898;2023-04-06T02:10:22;3.70;75.40
7666;DHT22;3875;46.562;4.898;2023-04-06T02:12:48;3.70;75.40
7666;DHT22;3875;46.562;4.898;2023-04-06T02:15:14;3.80;75.20
7666;DHT22;3875;46.562;4.898;2023-04-06T02:17:40;3.80;75.10
7666;DHT22;3875;46.562;4.898;2023-04-06T02:20:06;3.80;75.20
7666;DHT22;3875;46.562;4.898;2023-04-06T02:22:33;3.80;75.10
7666;DHT22;3875;46.562;4.898;2023-04-06T02:24:59;3.70;75.20
7666;DHT22;3875;46.562;4.898;2023-04-06T02:27:25;3.60;75.60
7666;DHT22;3875;46.562;4.898;2023-04-06T02:29:50;3.60;75.70
7666;DHT22;3875;46.562;4.898;2023-04-06T02:32:16;3.60;75.80
7666;DHT22;3875;46.562;4.898;2023-04-06T02:34:42;3.60;76.00
7666;DHT22;3875;46.562;4.898;2023-04-06T02:37:07;3.60;75.80
7666;DHT22;3875;46.562;4.898;2023-04-06T02:39:33;3.50;76.10
7666;DHT22;3875;46.562;4.898;2023-04-06T02:41:59;3.40;76.80
7666;DHT22;3875;46.562;4.898;2023-04-06T02:44:25;3.40;76.90
7666;DHT22;3875;46.562;4.898;2023-04-06T02:46:51;3.30;77.30
7666;DHT22;3875;46.562;4.898;2023-04-06T02:49:16;3.10;77.50
7666;DHT22;3875;46.562;4.898;2023-04-06T02:51:42;3.10;77.70
7666;DHT22;3875;46.562;4.898;2023-04-06T02:54:08;3.10;78.00
7666;DHT22;3875;46.562;4.898;2023-04-06T02:56:33;3.10;77.70
7666;DHT22;3875;46.562;4.898;2023-04-06T02:58:59;3.20;77.70
7666;DHT22;3875;46.562;4.898;2023-04-06T03:01:26;3.30;77.60
7666;DHT22;3875;46.562;4.898;2023-04-06T03:03:51;3.30;77.90
7666;DHT22;3875;46.562;4.898;2023-04-06T03:06:17;3.10;78.10
7666;DHT22;3875;46.562;4.898;2023-04-06T03:08:43;3.00;78.20
7666;DHT22;3875;46.562;4.898;2023-04-06T03:11:08;3.00;78.20
7666;DHT22;3875;46.562;4.898;2023-04-06T03:13:34;3.10;78.10
7666;DHT22;3875;46.562;4.898;2023-04-06T03:15:59;3.10;77.90
7666;DHT22;3875;46.562;4.898;2023-04-06T03:18:25;3.20;77.70
7666;DHT22;3875;46.562;4.898;2023-04-06T03:20:51;3.20;77.60
7666;DHT22;3875;46.562;4.898;2023-04-06T03:23:19;3.20;77.60
7666;DHT22;3875;46.562;4.898;2023-04-06T03:25:46;3.20;77.60
7666;DHT22;3875;46.562;4.898;2023-04-06T03:28:12;3.20;78.00
7666;DHT22;3875;46.562;4.898;2023-04-06T03:30:37;3.20;77.70
7666;DHT22;3875;46.562;4.898;2023-04-06T03:33:03;3.20;77.60
7666;DHT22;3875;46.562;4.898;2023-04-06T03:35:29;3.00;77.90
7666;DHT22;3875;46.562;4.898;2023-04-06T03:37:54;3.00;78.10
7666;DHT22;3875;46.562;4.898;2023-04-06T03:40:20;2.90;78.20
7666;DHT22;3875;46.562;4.898;2023-04-06T03:42:46;3.00;78.20
7666;DHT22;3875;46.562;4.898;2023-04-06T03:45:12;3.10;78.20
7666;DHT22;3875;46.562;4.898;2023-04-06T03:47:40;3.10;78.10
7666;DHT22;3875;46.562;4.898;2023-04-06T03:50:06;3.10;78.10
7666;DHT22;3875;46.562;4.898;2023-04-06T03:52:32;3.10;78.10
7666;DHT22;3875;46.562;4.898;2023-04-06T03:54:58;3.10;78.00
7666;DHT22;3875;46.562;4.898;2023-04-06T03:57:23;3.20;77.80
7666;DHT22;3875;46.562;4.898;2023-04-06T03:59:49;3.20;77.90
7666;DHT22;3875;46.562;4.898;2023-04-06T04:02:15;3.10;78.10
7666;DHT22;3875;46.562;4.898;2023-04-06T04:04:40;3.10;78.10
7666;DHT22;3875;46.562;4.898;2023-04-06T04:07:06;3.20;78.10
7666;DHT22;3875;46.562;4.898;2023-04-06T04:09:32;3.20;78.00
7666;DHT22;3875;46.562;4.898;2023-04-06T04:11:57;3.20;78.10
7666;DHT22;3875;46.562;4.898;2023-04-06T04:14:23;3.20;78.00
7666;DHT22;3875;46.562;4.898;2023-04-06T04:16:49;3.20;78.10
7666;DHT22;3875;46.562;4.898;2023-04-06T04:19:14;3.20;78.10
7666;DHT22;3875;46.562;4.898;2023-04-06T04:21:44;3.30;78.10
7666;DHT22;3875;46.562;4.898;2023-04-06T04:24:10;3.30;78.00
7666;DHT22;3875;46.562;4.898;2023-04-06T04:26:37;3.30;77.70
7666;DHT22;3875;46.562;4.898;2023-04-06T04:29:03;3.40;77.70
7666;DHT22;3875;46.562;4.898;2023-04-06T04:31:29;3.40;77.70
7666;DHT22;3875;46.562;4.898;2023-04-06T04:33:55;3.40;77.60
7666;DHT22;3875;46.562;4.898;2023-04-06T04:36:20;3.40;77.50
7666;DHT22;3875;46.562;4.898;2023-04-06T04:38:46;3.40;77.20
7666;DHT22;3875;46.562;4.898;2023-04-06T04:41:12;3.40;77.10
7666;DHT22;3875;46.562;4.898;2023-04-06T04:43:37;3.30;77.30
7666;DHT22;3875;46.562;4.898;2023-04-06T04:46:04;3.20;77.80
7666;DHT22;3875;46.562;4.898;2023-04-06T04:48:30;3.20;78.00
7666;DHT22;3875;46.562;4.898;2023-04-06T04:50:56;3.30;78.10
7666;DHT22;3875;46.562;4.898;2023-04-06T04:53:21;3.30;78.20
7666;DHT22;3875;46.562;4.898;2023-04-06T04:55:47;3.30;78.40
7666;DHT22;3875;46.562;4.898;2023-04-06T04:58:13;3.30;78.60
7666;DHT22;3875;46.562;4.898;2023-04-06T05:00:44;3.30;78.20
7666;DHT22;3875;46.562;4.898;2023-04-06T05:03:17;3.20;78.50
7666;DHT22;3875;46.562;4.898;2023-04-06T05:05:44;3.20;78.60
7666;DHT22;3875;46.562;4.898;2023-04-06T05:08:09;3.20;78.70
7666;DHT22;3875;46.562;4.898;2023-04-06T05:10:35;3.20;78.90
7666;DHT22;3875;46.562;4.898;2023-04-06T05:13:01;3.20;78.90
7666;DHT22;3875;46.562;4.898;2023-04-06T05:15:27;3.20;78.80
7666;DHT22;3875;46.562;4.898;2023-04-06T05:17:53;3.20;78.80
7666;DHT22;3875;46.562;4.898;2023-04-06T05:20:18;3.20;79.00
7666;DHT22;3875;46.562;4.898;2023-04-06T05:22:44;3.30;79.20
7666;DHT22;3875;46.562;4.898;2023-04-06T05:25:10;3.30;79.00
7666;DHT22;3875;46.562;4.898;2023-04-06T05:27:35;3.40;78.90
7666;DHT22;3875;46.562;4.898;2023-04-06T05:30:01;3.40;79.00
7666;DHT22;3875;46.562;4.898;2023-04-06T05:32:27;3.50;79.10
7666;DHT22;3875;46.562;4.898;2023-04-06T05:34:53;3.50;79.20
7666;DHT22;3875;46.562;4.898;2023-04-06T05:37:19;3.60;79.30
7666;DHT22;3875;46.562;4.898;2023-04-06T05:39:44;3.60;79.10
7666;DHT22;3875;46.562;4.898;2023-04-06T05:42:10;3.60;79.10
7666;DHT22;3875;46.562;4.898;2023-04-06T05:44:37;3.70;79.40
7666;DHT22;3875;46.562;4.898;2023-04-06T05:47:03;3.70;79.40
7666;DHT22;3875;46.562;4.898;2023-04-06T05:49:28;3.80;79.50
7666;DHT22;3875;46.562;4.898;2023-04-06T05:51:54;3.90;79.20
7666;DHT22;3875;46.562;4.898;2023-04-06T05:54:20;3.90;79.00
7666;DHT22;3875;46.562;4.898;2023-04-06T05:56:46;4.00;78.90
7666;DHT22;3875;46.562;4.898;2023-04-06T05:59:12;4.10;78.80
7666;DHT22;3875;46.562;4.898;2023-04-06T06:01:37;4.20;79.10
7666;DHT22;3875;46.562;4.898;2023-04-06T06:04:03;4.30;79.10
7666;DHT22;3875;46.562;4.898;2023-04-06T06:06:29;4.40;78.90
7666;DHT22;3875;46.562;4.898;2023-04-06T06:08:56;4.60;78.90
7666;DHT22;3875;46.562;4.898;2023-04-06T06:11:24;4.70;78.90
7666;DHT22;3875;46.562;4.898;2023-04-06T06:13:50;4.80;78.80
7666;DHT22;3875;46.562;4.898;2023-04-06T06:16:17;4.90;78.70
7666;DHT22;3875;46.562;4.898;2023-04-06T06:18:43;5.00;78.50
7666;DHT22;3875;46.562;4.898;2023-04-06T06:21:09;5.10;78.50
7666;DHT22;3875;46.562;4.898;2023-04-06T06:23:36;5.10;78.50
7666;DHT22;3875;46.562;4.898;2023-04-06T06:26:02;5.20;78.50
7666;DHT22;3875;46.562;4.898;2023-04-06T06:28:28;5.20;78.40
7666;DHT22;3875;46.562;4.898;2023-04-06T06:30:54;5.20;78.40
7666;DHT22;3875;46.562;4.898;2023-04-06T06:33:19;5.30;78.50
7666;DHT22;3875;46.562;4.898;2023-04-06T06:35:45;5.30;78.60
7666;DHT22;3875;46.562;4.898;2023-04-06T06:38:11;5.40;78.60
7666;DHT22;3875;46.562;4.898;2023-04-06T06:40:36;5.40;78.60
7666;DHT22;3875;46.562;4.898;2023-04-06T06:43:02;5.50;78.70
7666;DHT22;3875;46.562;4.898;2023-04-06T06:45:28;5.40;78.90
7666;DHT22;3875;46.562;4.898;2023-04-06T06:47:55;5.40;78.90
7666;DHT22;3875;46.562;4.898;2023-04-06T06:50:20;5.50;79.10
7666;DHT22;3875;46.562;4.898;2023-04-06T06:52:46;5.60;78.90
7666;DHT22;3875;46.562;4.898;2023-04-06T06:55:12;5.70;78.80
7666;DHT22;3875;46.562;4.898;2023-04-06T06:57:37;5.80;78.90
7666;DHT22;3875;46.562;4.898;2023-04-06T07:00:05;5.90;78.80
7666;DHT22;3875;46.562;4.898;2023-04-06T07:02:31;6.00;78.90
7666;DHT22;3875;46.562;4.898;2023-04-06T07:04:57;6.10;79.10
7666;DHT22;3875;46.562;4.898;2023-04-06T07:07:22;6.20;79.30
7666;DHT22;3875;46.562;4.898;2023-04-06T07:09:48;6.30;79.80
7666;DHT22;3875;46.562;4.898;2023-04-06T07:12:14;6.50;79.70
7666;DHT22;3875;46.562;4.898;2023-04-06T07:14:40;6.70;79.60
7666;DHT22;3875;46.562;4.898;2023-04-06T07:17:06;6.90;79.40
7666;DHT22;3875;46.562;4.898;2023-04-06T07:19:32;7.10;79.10
7666;DHT22;3875;46.562;4.898;2023-04-06T07:21:57;7.30;79.10
7666;DHT22;3875;46.562;4.898;2023-04-06T07:24:23;7.50;78.60
7666;DHT22;3875;46.562;4.898;2023-04-06T07:26:49;7.70;78.30
7666;DHT22;3875;46.562;4.898;2023-04-06T07:29:14;7.90;78.20
7666;DHT22;3875;46.562;4.898;2023-04-06T07:31:40;8.10;77.70
7666;DHT22;3875;46.562;4.898;2023-04-06T07:34:06;8.20;77.60
7666;DHT22;3875;46.562;4.898;2023-04-06T07:36:31;8.40;77.20
7666;DHT22;3875;46.562;4.898;2023-04-06T07:38:57;8.50;76.80
7666;DHT22;3875;46.562;4.898;2023-04-06T07:41:23;8.60;77.00
7666;DHT22;3875;46.562;4.898;2023-04-06T07:43:49;8.60;77.20
7666;DHT22;3875;46.562;4.898;2023-04-06T07:46:15;8.70;77.00
7666;DHT22;3875;46.562;4.898;2023-04-06T07:48:40;8.80;77.00
7666;DHT22;3875;46.562;4.898;2023-04-06T07:51:06;9.00;77.10
7666;DHT22;3875;46.562;4.898;2023-04-06T07:53:32;9.10;76.90
7666;DHT22;3875;46.562;4.898;2023-04-06T07:55:58;9.20;77.00
7666;DHT22;3875;46.562;4.898;2023-04-06T07:58:24;9.50;76.70
7666;DHT22;3875;46.562;4.898;2023-04-06T08:00:50;9.50;76.50
7666;DHT22;3875;46.562;4.898;2023-04-06T08:03:16;9.50;76.40
7666;DHT22;3875;46.562;4.898;2023-04-06T08:05:42;9.60;76.30
7666;DHT22;3875;46.562;4.898;2023-04-06T08:08:08;9.60;76.30
7666;DHT22;3875;46.562;4.898;2023-04-06T08:10:34;9.70;76.50
7666;DHT22;3875;46.562;4.898;2023-04-06T08:13:00;9.70;76.20
7666;DHT22;3875;46.562;4.898;2023-04-06T08:15:26;9.80;75.80
7666;DHT22;3875;46.562;4.898;2023-04-06T08:17:52;9.80;76.00
7666;DHT22;3875;46.562;4.898;2023-04-06T08:20:18;9.90;76.00
7666;DHT22;3875;46.562;4.898;2023-04-06T08:22:45;10.10;75.90
7666;DHT22;3875;46.562;4.898;2023-04-06T08:25:10;10.20;75.50
7666;DHT22;3875;46.562;4.898;2023-04-06T08:27:36;10.30;75.60
7666;DHT22;3875;46.562;4.898;2023-04-06T08:30:02;10.40;75.20
7666;DHT22;3875;46.562;4.898;2023-04-06T08:32:28;10.50;75.20
7666;DHT22;3875;46.562;4.898;2023-04-06T08:34:54;10.70;74.60
7666;DHT22;3875;46.562;4.898;2023-04-06T08:37:22;10.90;74.20
7666;DHT22;3875;46.562;4.898;2023-04-06T08:39:47;11.00;74.10
7666;DHT22;3875;46.562;4.898;2023-04-06T08:42:21;11.10;73.20
7666;DHT22;3875;46.562;4.898;2023-04-06T08:44:48;11.20;73.30
7666;DHT22;3875;46.562;4.898;2023-04-06T08:47:14;11.30;73.30
7666;DHT22;3875;46.562;4.898;2023-04-06T08:49:40;11.40;73.00
7666;DHT22;3875;46.562;4.898;2023-04-06T08:52:07;11.50;72.60
7666;DHT22;3875;46.562;4.898;2023-04-06T08:54:37;11.60;71.60
7666;DHT22;3875;46.562;4.898;2023-04-06T08:57:03;11.90;72.00
7666;DHT22;3875;46.562;4.898;2023-04-06T08:59:31;12.20;71.30
7666;DHT22;3875;46.562;4.898;2023-04-06T09:01:56;12.50;70.50
7666;DHT22;3875;46.562;4.898;2023-04-06T09:04:23;12.90;70.00
7666;DHT22;3875;46.562;4.898;2023-04-06T09:06:48;13.30;69.00
7666;DHT22;3875;46.562;4.898;2023-04-06T09:09:15;13.60;68.50
7666;DHT22;3875;46.562;4.898;2023-04-06T09:11:48;13.70;66.30
7666;DHT22;3875;46.562;4.898;2023-04-06T09:14:15;13.70;66.50
7666;DHT22;3875;46.562;4.898;2023-04-06T09:16:43;13.80;67.20
7666;DHT22;3875;46.562;4.898;2023-04-06T09:19:10;13.90;66.20
7666;DHT22;3875;46.562;4.898;2023-04-06T09:21:36;13.90;66.30
7666;DHT22;3875;46.562;4.898;2023-04-06T09:24:03;13.90;65.30
7666;DHT22;3875;46.562;4.898;2023-04-06T09:26:29;13.80;65.80
7666;DHT22;3875;46.562;4.898;2023-04-06T09:28:57;13.80;66.60
7666;DHT22;3875;46.562;4.898;2023-04-06T09:31:31;13.90;65.90
7666;DHT22;3875;46.562;4.898;2023-04-06T09:33:59;13.80;65.30
7666;DHT22;3875;46.562;4.898;2023-04-06T09:36:32;13.90;65.90
7666;DHT22;3875;46.562;4.898;2023-04-06T09:39:02;14.00;65.50
7666;DHT22;3875;46.562;4.898;2023-04-06T09:41:35;13.90;65.70
7666;DHT22;3875;46.562;4.898;2023-04-06T09:46:34;14.00;65.30
7666;DHT22;3875;46.562;4.898;2023-04-06T09:49:04;14.10;65.30
7666;DHT22;3875;46.562;4.898;2023-04-06T09:51:36;14.30;64.80
7666;DHT22;3875;46.562;4.898;2023-04-06T09:54:02;14.30;64.40
7666;DHT22;3875;46.562;4.898;2023-04-06T09:56:51;14.30;64.00
7666;DHT22;3875;46.562;4.898;2023-04-06T09:59:37;14.50;64.20
7666;DHT22;3875;46.562;4.898;2023-04-06T10:02:05;14.90;63.40
7666;DHT22;3875;46.562;4.898;2023-04-06T10:04:39;15.00;63.50
7666;DHT22;3875;46.562;4.898;2023-04-06T10:07:07;15.00;62.80
7666;DHT22;3875;46.562;4.898;2023-04-06T10:09:35;14.90;63.30
7666;DHT22;3875;46.562;4.898;2023-04-06T10:12:04;15.00;63.10
7666;DHT22;3875;46.562;4.898;2023-04-06T10:14:33;15.00;62.40
7666;DHT22;3875;46.562;4.898;2023-04-06T10:17:02;15.10;62.80
7666;DHT22;3875;46.562;4.898;2023-04-06T10:22:05;15.40;61.80
7666;DHT22;3875;46.562;4.898;2023-04-06T10:24:31;15.50;60.60
7666;DHT22;3875;46.562;4.898;2023-04-06T10:27:01;15.40;60.60
7666;DHT22;3875;46.562;4.898;2023-04-06T10:29:27;15.50;60.50
7666;DHT22;3875;46.562;4.898;2023-04-06T10:31:53;15.70;60.40
7666;DHT22;3875;46.562;4.898;2023-04-06T10:34:21;15.90;58.50
7666;DHT22;3875;46.562;4.898;2023-04-06T10:36:46;15.80;59.10
7666;DHT22;3875;46.562;4.898;2023-04-06T10:39:12;15.60;59.00
7666;DHT22;3875;46.562;4.898;2023-04-06T10:41:43;15.40;59.60
7666;DHT22;3875;46.562;4.898;2023-04-06T10:44:23;15.30;59.40
7666;DHT22;3875;46.562;4.898;2023-04-06T10:46:53;15.20;59.80
7666;DHT22;3875;46.562;4.898;2023-04-06T10:49:20;15.50;58.40
7666;DHT22;3875;46.562;4.898;2023-04-06T10:51:54;15.60;58.80
7666;DHT22;3875;46.562;4.898;2023-04-06T10:54:22;15.70;59.40
7666;DHT22;3875;46.562;4.898;2023-04-06T10:56:49;15.60;58.80
7666;DHT22;3875;46.562;4.898;2023-04-06T10:59:21;15.60;59.60
7666;DHT22;3875;46.562;4.898;2023-04-06T11:01:47;15.80;59.60
7666;DHT22;3875;46.562;4.898;2023-04-06T11:04:19;15.90;59.40
7666;DHT22;3875;46.562;4.898;2023-04-06T11:06:47;16.10;58.70
7666;DHT22;3875;46.562;4.898;2023-04-06T11:09:26;16.30;58.50
7666;DHT22;3875;46.562;4.898;2023-04-06T11:11:53;16.60;57.40
7666;DHT22;3875;46.562;4.898;2023-04-06T11:14:18;16.80;57.90
7666;DHT22;3875;46.562;4.898;2023-04-06T11:16:47;17.00;56.90
7666;DHT22;3875;46.562;4.898;2023-04-06T11:19:16;17.00;56.10
7666;DHT22;3875;46.562;4.898;2023-04-06T11:21:47;17.00;55.00
7666;DHT22;3875;46.562;4.898;2023-04-06T11:24:17;17.30;56.30
7666;DHT22;3875;46.562;4.898;2023-04-06T11:26:45;17.60;55.10
7666;DHT22;3875;46.562;4.898;2023-04-06T11:29:16;17.60;54.20
7666;DHT22;3875;46.562;4.898;2023-04-06T11:32:01;17.70;55.30
7666;DHT22;3875;46.562;4.898;2023-04-06T11:34:30;18.00;55.10
7666;DHT22;3875;46.562;4.898;2023-04-06T11:37:00;18.10;54.20
7666;DHT22;3875;46.562;4.898;2023-04-06T11:39:28;18.10;54.40
7666;DHT22;3875;46.562;4.898;2023-04-06T11:41:58;18.10;54.30
7666;DHT22;3875;46.562;4.898;2023-04-06T11:46:57;18.10;53.10
7666;DHT22;3875;46.562;4.898;2023-04-06T11:49:27;18.10;54.30
7666;DHT22;3875;46.562;4.898;2023-04-06T11:51:53;18.20;53.70
7666;DHT22;3875;46.562;4.898;2023-04-06T11:54:33;18.20;53.30
7666;DHT22;3875;46.562;4.898;2023-04-06T11:56:59;18.30;53.20
7666;DHT22;3875;46.562;4.898;2023-04-06T11:59:26;18.40;53.20
7666;DHT22;3875;46.562;4.898;2023-04-06T12:01:53;18.40;52.20
7666;DHT22;3875;46.562;4.898;2023-04-06T12:04:19;18.60;52.80
7666;DHT22;3875;46.562;4.898;2023-04-06T12:06:45;18.60;52.20
7666;DHT22;3875;46.562;4.898;2023-04-06T12:09:11;18.60;51.80
7666;DHT22;3875;46.562;4.898;2023-04-06T12:11:37;18.50;52.80
7666;DHT22;3875;46.562;4.898;2023-04-06T12:14:03;18.50;53.10
7666;DHT22;3875;46.562;4.898;2023-04-06T12:16:30;18.60;53.20
7666;DHT22;3875;46.562;4.898;2023-04-06T12:18:57;18.90;51.40
7666;DHT22;3875;46.562;4.898;2023-04-06T12:21:22;19.40;50.60
7666;DHT22;3875;46.562;4.898;2023-04-06T12:23:48;19.80;51.10
7666;DHT22;3875;46.562;4.898;2023-04-06T12:26:14;20.50;49.30
7666;DHT22;3875;46.562;4.898;2023-04-06T12:28:40;20.80;49.90
7666;DHT22;3875;46.562;4.898;2023-04-06T12:31:06;20.80;49.20
7666;DHT22;3875;46.562;4.898;2023-04-06T12:33:31;21.10;48.60
7666;DHT22;3875;46.562;4.898;2023-04-06T12:35:57;20.90;48.50
7666;DHT22;3875;46.562;4.898;2023-04-06T12:38:23;20.60;48.90
7666;DHT22;3875;46.562;4.898;2023-04-06T12:40:49;20.40;48.10
7666;DHT22;3875;46.562;4.898;2023-04-06T12:43:14;20.00;48.50
7666;DHT22;3875;46.562;4.898;2023-04-06T12:45:40;19.90;49.80
7666;DHT22;3875;46.562;4.898;2023-04-06T12:48:06;19.80;49.40
7666;DHT22;3875;46.562;4.898;2023-04-06T12:50:32;19.80;50.40
7666;DHT22;3875;46.562;4.898;2023-04-06T12:53:01;19.60;48.10
7666;DHT22;3875;46.562;4.898;2023-04-06T12:55:29;19.40;48.70
7666;DHT22;3875;46.562;4.898;2023-04-06T12:57:55;19.20;49.40
7666;DHT22;3875;46.562;4.898;2023-04-06T13:00:21;19.00;49.00
7666;DHT22;3875;46.562;4.898;2023-04-06T13:02:46;18.90;48.20
7666;DHT22;3875;46.562;4.898;2023-04-06T13:05:14;18.80;49.10
7666;DHT22;3875;46.562;4.898;2023-04-06T13:07:44;18.70;47.90
7666;DHT22;3875;46.562;4.898;2023-04-06T13:10:10;18.60;48.30
7666;DHT22;3875;46.562;4.898;2023-04-06T13:12:35;18.60;47.70
7666;DHT22;3875;46.562;4.898;2023-04-06T13:15:01;18.60;48.20
7666;DHT22;3875;46.562;4.898;2023-04-06T13:17:28;18.60;48.70
7666;DHT22;3875;46.562;4.898;2023-04-06T13:19:53;18.70;48.40
7666;DHT22;3875;46.562;4.898;2023-04-06T13:22:19;18.80;48.50
7666;DHT22;3875;46.562;4.898;2023-04-06T13:24:45;19.00;48.20
7666;DHT22;3875;46.562;4.898;2023-04-06T13:27:11;19.10;48.40
7666;DHT22;3875;46.562;4.898;2023-04-06T13:29:37;19.20;48.80
7666;DHT22;3875;46.562;4.898;2023-04-06T13:32:02;19.30;47.90
7666;DHT22;3875;46.562;4.898;2023-04-06T13:34:28;19.30;47.80
7666;DHT22;3875;46.562;4.898;2023-04-06T13:36:54;19.30;47.80
7666;DHT22;3875;46.562;4.898;2023-04-06T13:39:20;19.20;49.10
7666;DHT22;3875;46.562;4.898;2023-04-06T13:41:46;19.30;49.00
7666;DHT22;3875;46.562;4.898;2023-04-06T13:44:11;19.30;48.80
7666;DHT22;3875;46.562;4.898;2023-04-06T13:46:37;19.30;48.80
7666;DHT22;3875;46.562;4.898;2023-04-06T13:49:03;19.20;48.70
7666;DHT22;3875;46.562;4.898;2023-04-06T13:51:28;19.20;49.70
7666;DHT22;3875;46.562;4.898;2023-04-06T13:53:54;19.30;48.90
7666;DHT22;3875;46.562;4.898;2023-04-06T13:56:20;19.20;48.40
7666;DHT22;3875;46.562;4.898;2023-04-06T13:58:46;19.00;49.00
7666;DHT22;3875;46.562;4.898;2023-04-06T14:01:12;18.80;49.10
7666;DHT22;3875;46.562;4.898;2023-04-06T14:03:37;18.80;50.40
7666;DHT22;3875;46.562;4.898;2023-04-06T14:06:13;18.60;50.10
7666;DHT22;3875;46.562;4.898;2023-04-06T14:08:39;18.40;50.10
7666;DHT22;3875;46.562;4.898;2023-04-06T14:11:05;18.20;49.70
7666;DHT22;3875;46.562;4.898;2023-04-06T14:13:33;18.10;50.50
7666;DHT22;3875;46.562;4.898;2023-04-06T14:15:59;18.20;51.20
7666;DHT22;3875;46.562;4.898;2023-04-06T14:18:25;18.30;51.10
7666;DHT22;3875;46.562;4.898;2023-04-06T14:20:57;18.20;50.80
7666;DHT22;3875;46.562;4.898;2023-04-06T14:23:26;17.70;48.70
7666;DHT22;3875;46.562;4.898;2023-04-06T14:26:01;17.40;50.00
7666;DHT22;3875;46.562;4.898;2023-04-06T14:28:28;17.40;50.70
7666;DHT22;3875;46.562;4.898;2023-04-06T14:30:53;17.50;52.10
7666;DHT22;3875;46.562;4.898;2023-04-06T14:33:19;17.70;52.70
7666;DHT22;3875;46.562;4.898;2023-04-06T14:35:44;17.70;51.00
7666;DHT22;3875;46.562;4.898;2023-04-06T14:38:10;17.90;51.50
7666;DHT22;3875;46.562;4.898;2023-04-06T14:40:36;17.80;50.60
7666;DHT22;3875;46.562;4.898;2023-04-06T14:43:03;17.80;50.70
7666;DHT22;3875;46.562;4.898;2023-04-06T14:45:29;17.70;51.10
7666;DHT22;3875;46.562;4.898;2023-04-06T14:47:55;17.60;50.70
7666;DHT22;3875;46.562;4.898;2023-04-06T14:50:21;17.30;48.70
7666;DHT22;3875;46.562;4.898;2023-04-06T14:52:46;17.10;48.60
7666;DHT22;3875;46.562;4.898;2023-04-06T14:55:12;16.90;49.10
7666;DHT22;3875;46.562;4.898;2023-04-06T14:57:39;16.90;50.10
7666;DHT22;3875;46.562;4.898;2023-04-06T15:00:05;17.10;51.30
7666;DHT22;3875;46.562;4.898;2023-04-06T15:02:33;17.10;50.20
7666;DHT22;3875;46.562;4.898;2023-04-06T15:04:59;17.10;50.50
7666;DHT22;3875;46.562;4.898;2023-04-06T15:07:24;17.30;50.40
7666;DHT22;3875;46.562;4.898;2023-04-06T15:09:50;17.00;48.80
7666;DHT22;3875;46.562;4.898;2023-04-06T15:12:16;16.70;49.40
7666;DHT22;3875;46.562;4.898;2023-04-06T15:14:42;16.50;50.40
7666;DHT22;3875;46.562;4.898;2023-04-06T15:17:07;16.30;50.00
7666;DHT22;3875;46.562;4.898;2023-04-06T15:19:33;16.10;51.30
7666;DHT22;3875;46.562;4.898;2023-04-06T15:21:58;16.10;51.80
7666;DHT22;3875;46.562;4.898;2023-04-06T15:24:24;16.00;51.30
7666;DHT22;3875;46.562;4.898;2023-04-06T15:26:50;15.80;51.30
7666;DHT22;3875;46.562;4.898;2023-04-06T15:29:16;15.70;50.70
7666;DHT22;3875;46.562;4.898;2023-04-06T15:31:41;15.40;51.60
7666;DHT22;3875;46.562;4.898;2023-04-06T15:34:07;15.20;52.80
7666;DHT22;3875;46.562;4.898;2023-04-06T15:36:33;15.20;53.60
7666;DHT22;3875;46.562;4.898;2023-04-06T15:38:59;15.10;53.90
7666;DHT22;3875;46.562;4.898;2023-04-06T15:41:26;15.10;53.70
7666;DHT22;3875;46.562;4.898;2023-04-06T15:43:53;15.10;53.60
7666;DHT22;3875;46.562;4.898;2023-04-06T15:46:19;15.10;53.60
7666;DHT22;3875;46.562;4.898;2023-04-06T15:48:45;14.90;53.50
7666;DHT22;3875;46.562;4.898;2023-04-06T15:51:11;14.70;54.70
7666;DHT22;3875;46.562;4.898;2023-04-06T15:53:37;14.60;56.10
7666;DHT22;3875;46.562;4.898;2023-04-06T15:56:05;14.60;55.50
7666;DHT22;3875;46.562;4.898;2023-04-06T15:58:33;14.60;55.70
7666;DHT22;3875;46.562;4.898;2023-04-06T16:00:59;14.70;55.50
7666;DHT22;3875;46.562;4.898;2023-04-06T16:03:24;14.70;55.70
7666;DHT22;3875;46.562;4.898;2023-04-06T16:05:51;14.90;56.00
7666;DHT22;3875;46.562;4.898;2023-04-06T16:08:17;15.00;55.30
7666;DHT22;3875;46.562;4.898;2023-04-06T16:10:44;15.10;55.00
7666;DHT22;3875;46.562;4.898;2023-04-06T16:13:10;15.40;55.30